This demonstration page uses our WeatherBlox Daily Observations layout. Learn more.

38.89511, -77.03637

Hourly Observations for November 18, 2017

Temp ( °F °C ) Dew Point ( °F °C ) Humidity (%) Winds ( mph kmh ) Pressure ( in mb ) Visibility ( mi km ) Precip ( " mm )
12:52 am 00:52 Mostly Cloudy 40 4.4 36 2.2 86 86 SSW 5 7 30.06 1018 10 16.09344 0 0
1:52 am 01:52 Partly Cloudy 39 3.9 35 1.7 86 86 S 7 11 30.03 1017 10 16.09344 0 0
2:52 am 02:52 Mostly Cloudy 39 3.9 34 1.1 82 82 SSW 5 7 30 1016 10 16.09344 0 0
3:52 am 03:52 Mostly Clear 39 3.9 32 0 76 76 S 7 11 30 1016 10 16.09344 0 0
4:52 am 04:52 Mostly Cloudy 39 3.9 33 0.6 79 79 S 9 15 30 1016 10 16.09344 0 0
5:29 am 05:29 Mostly Cloudy 39 3.9 33 0.6 79 79 S 8 13 29.97 1015 10 16.09344 0 0
5:52 am 05:52 Mostly Cloudy 40 4.4 34 1.1 79 79 S 12 19 29.94 1014 10 16.09344 0 0
6:28 am 06:28 Mostly Cloudy 40 4.4 33 0.6 77 77 S 10 17 29.94 1014 10 16.09344 0 0
6:52 am 06:52 Mostly Cloudy 41 5 34 1.1 76 76 SSW 13 20 29.91 1013 10 16.09344 0 0
7:52 am 07:52 Mostly Cloudy 44 6.7 35 1.7 71 71 S 14 22 29.88 1012 10 16.09344 0 0
8:52 am 08:52 Mostly Cloudy 47 8.3 35 1.7 63 63 SSW 17 28 29.88 1012 10 16.09344 0 0
9:52 am 09:52 Cloudy 50 10 37 2.8 61 61 S 14 22 29.85 1011 10 16.09344 0 0
10:52 am 10:52 Cloudy 53 11.7 37 2.8 55 55 SSW 20 31 29.8 1009 10 16.09344 0 0
11:52 am 11:52 Cloudy 55 12.8 39 3.9 55 55 S 13 20 29.74 1007 10 16.09344 0 0
12:52 pm 12:52 Mostly Cloudy 60 15.6 39 3.9 46 46 S 20 31 29.68 1005 10 16.09344 0 0
1:52 pm 13:52 Mostly Cloudy 59 15 39 3.9 48 48 SSW 18 30 29.68 1005 10 16.09344 0 0
2:52 pm 14:52 Cloudy with Light Rain 58 14.4 40 4.4 51 51 SSW 17 28 29.65 1004 10 16.09344 0.001 0.001
3:52 pm 15:52 Cloudy with Light Rain 54 12.2 45 7.2 72 72 S 10 17 29.62 1003 10 16.09344 0.001 0.001
4:52 pm 16:52 Cloudy 54 12.2 44 6.7 69 69 S 10 17 29.59 1002 10 16.09344 0.001 0.001
5:52 pm 17:52 Cloudy 55 12.8 43 6.1 64 64 S 12 19 29.59 1002 10 16.09344 0 0
6:52 pm 18:52 Cloudy 57 13.9 45 7.2 64 64 S 15 24 29.53 1000 10 16.09344 0 0
7:52 pm 19:52 Cloudy 57 13.9 46 7.8 67 67 S 13 20 32.45 1099 10 16.09344 0 0
8:52 pm 20:52 Cloudy 61 16.1 48 8.9 63 63 S 15 24 32.45 1099 10 16.09344 0 0
9:18 pm 21:18 Cloudy 63 17.2 48 8.9 58 58 S 24 39 29.47 998 10 16.09344 0 0
9:52 pm 21:52 Cloudy 63 17.2 49 9.4 60 60 SSW 22 35 32.42 1098 10 16.09344 0 0
10:52 pm 22:52 Cloudy 62 16.7 50 10 65 65 SSW 18 30 32.39 1097 10 16.09344 0 0
11:52 pm 23:52 Cloudy 63 17.2 51 10.6 65 65 S 15 24 32.36 1096 10 16.09344 0 0

Powered by AerisWeather